Time;durP1;ratioP1;P1;durP2;ratioP2;P2;SDS_P1;SDS_P2;PMS_P1;PMS_P2;Temp;Humidity;BMP_temperature;BMP_pressure;BME280_temperature;BME280_humidity;BME280_pressure;Samples;Min_cycle;Max_cycle;Signal;HPM_P1;HPM_P2
2022/07/01 00:00:41;;;;;;;8.63;5.05;;;;;;;22.55;88.63;97600.50;5070444;28;20029;-75
2022/07/01 00:03:06;;;;;;;11.10;4.93;;;;;;;22.64;87.04;97603.78;5070473;28;20032;-74
2022/07/01 00:05:32;;;;;;;11.80;4.28;;;;;;;22.63;86.38;97599.38;5070219;28;20132;-74
2022/07/01 00:07:58;;;;;;;10.23;4.78;;;;;;;22.58;87.15;97594.16;5070476;28;20024;-74
2022/07/01 00:10:24;;;;;;;8.60;4.50;;;;;;;22.56;87.19;97605.69;5070676;28;20028;-75
2022/07/01 00:12:49;;;;;;;10.07;4.72;;;;;;;22.53;87.57;97600.06;5070415;28;20048;-73
2022/07/01 00:15:15;;;;;;;7.70;4.78;;;;;;;22.55;87.10;97600.50;5070615;28;20387;-74
2022/07/01 00:17:40;;;;;;;7.47;4.07;;;;;;;22.42;87.32;97602.75;5075568;28;20021;-75
2022/07/01 00:20:09;;;;;;;10.30;4.65;;;;;;;22.38;88.06;97602.72;5071027;28;20024;-74
2022/07/01 00:22:35;;;;;;;6.68;4.38;;;;;;;22.31;88.41;97602.63;5070693;28;20037;-74
2022/07/01 00:25:00;;;;;;;8.45;4.47;;;;;;;22.20;89.10;97601.72;5069809;28;20039;-73
2022/07/01 00:27:27;;;;;;;9.82;4.90;;;;;;;22.11;90.86;97603.19;5070504;28;20029;-74
2022/07/01 00:29:52;;;;;;;10.20;4.55;;;;;;;22.08;91.21;97598.38;5070119;28;20498;-74
2022/07/01 00:32:18;;;;;;;6.95;4.30;;;;;;;22.06;91.99;97618.25;5069848;28;20036;-75
2022/07/01 00:34:43;;;;;;;7.95;4.07;;;;;;;22.01;92.57;97604.66;5070109;28;20112;-74
2022/07/01 00:37:09;;;;;;;8.15;5.20;;;;;;;21.97;92.35;97603.81;5068899;28;20047;-74
2022/07/01 00:39:35;;;;;;;12.13;5.00;;;;;;;21.89;91.94;97596.53;5073931;28;20031;-74
2022/07/01 00:42:03;;;;;;;12.55;4.32;;;;;;;21.92;91.28;97612.50;5073841;28;20051;-75
2022/07/01 00:44:29;;;;;;;11.20;4.90;;;;;;;21.96;91.18;97618.13;5073672;28;20036;-74
2022/07/01 00:46:56;;;;;;;10.77;4.65;;;;;;;21.88;91.46;97614.41;5074231;28;20031;-74
2022/07/01 00:49:21;;;;;;;12.50;6.10;;;;;;;21.90;91.61;97623.19;5073831;28;20032;-74
2022/07/01 00:51:47;;;;;;;12.88;5.10;;;;;;;21.79;92.12;97619.44;5073703;28;20378;-74
2022/07/01 00:54:13;;;;;;;10.45;4.63;;;;;;;21.73;93.05;97629.31;5073671;28;20095;-75
2022/07/01 00:56:39;;;;;;;9.80;4.47;;;;;;;21.76;93.11;97625.78;5073497;28;20545;-74
2022/07/01 00:59:04;;;;;;;12.10;5.18;;;;;;;21.96;91.54;97637.63;5073358;28;20025;-74
2022/07/01 01:01:29;;;;;;;8.93;4.57;;;;;;;21.98;90.66;97638.84;5073384;28;20048;-74
2022/07/01 01:03:56;;;;;;;15.43;6.00;;;;;;;21.95;90.75;97639.59;5073530;28;20115;-74
2022/07/01 01:06:21;;;;;;;9.00;4.47;;;;;;;22.01;91.30;97640.88;5073456;28;20040;-74
2022/07/01 01:08:48;;;;;;;8.68;5.00;;;;;;;21.92;92.07;97632.00;5073610;28;20033;-74
2022/07/01 01:11:15;;;;;;;9.43;5.25;;;;;;;21.86;93.35;97633.47;5073375;28;20548;-73
2022/07/01 01:13:41;;;;;;;8.55;4.18;;;;;;;21.94;92.43;97637.97;5072972;28;20044;-75
2022/07/01 01:16:07;;;;;;;7.03;4.85;;;;;;;21.82;93.31;97632.63;5073233;28;20027;-74
2022/07/01 01:18:33;;;;;;;11.35;4.72;;;;;;;21.93;92.76;97636.38;5073572;28;20530;-75
2022/07/01 01:20:59;;;;;;;8.52;5.55;;;;;;;21.84;92.44;97628.28;5073086;28;20032;-75
2022/07/01 01:23:24;;;;;;;10.30;5.00;;;;;;;21.79;93.42;97638.94;5072911;28;20385;-74
2022/07/01 01:25:49;;;;;;;11.38;5.65;;;;;;;21.71;93.88;97634.44;5073001;28;20040;-74
2022/07/01 01:28:15;;;;;;;11.63;5.65;;;;;;;21.56;94.91;97624.28;5072689;28;20519;-75
2022/07/01 01:30:40;;;;;;;11.52;5.55;;;;;;;21.44;96.60;97630.06;5072773;28;20097;-74
2022/07/01 01:33:08;;;;;;;9.38;4.93;;;;;;;21.60;95.34;97625.13;5071515;28;20020;-75
2022/07/01 01:35:34;;;;;;;8.38;4.82;;;;;;;21.62;95.14;97626.34;5071656;28;20413;-74
2022/07/01 01:37:59;;;;;;;9.80;5.30;;;;;;;21.62;95.33;97631.13;5072720;28;20075;-75
2022/07/01 01:40:25;;;;;;;10.23;5.18;;;;;;;21.51;96.15;97613.47;5072597;28;20436;-74
2022/07/01 01:42:52;;;;;;;8.48;4.50;;;;;;;21.45;97.80;97626.09;5072680;28;20089;-76
2022/07/01 01:45:17;;;;;;;10.60;4.22;;;;;;;21.51;97.94;97621.81;5072628;28;20508;-73
2022/07/01 01:47:43;;;;;;;8.40;5.45;;;;;;;21.57;97.00;97623.91;5072968;28;20021;-75
2022/07/01 01:50:10;;;;;;;8.80;5.55;;;;;;;21.52;97.90;97615.88;5071292;28;20024;-75
2022/07/01 01:52:37;;;;;;;12.48;5.50;;;;;;;21.48;98.48;97605.88;5072259;28;20024;-74
2022/07/01 01:55:03;;;;;;;14.65;5.55;;;;;;;21.55;98.03;97608.75;5071562;28;20082;-74
2022/07/01 01:57:28;;;;;;;8.68;5.10;;;;;;;21.62;97.00;97614.41;5070055;28;20032;-75
2022/07/01 01:59:54;;;;;;;15.20;5.80;;;;;;;21.47;97.41;97610.63;5071616;28;20059;-74
2022/07/01 02:02:19;;;;;;;11.40;4.95;;;;;;;21.48;97.25;97619.78;5072143;28;20028;-74
2022/07/01 02:04:44;;;;;;;12.18;5.13;;;;;;;21.44;97.25;97613.34;5071925;28;20033;-74
2022/07/01 02:07:09;;;;;;;8.35;4.88;;;;;;;21.42;98.02;97618.50;5071951;28;20469;-74
2022/07/01 02:09:35;;;;;;;10.70;5.90;;;;;;;21.23;100.00;97613.84;5071929;28;20523;-74
2022/07/01 02:12:00;;;;;;;11.73;4.82;;;;;;;21.23;100.00;97606.31;5071999;28;20043;-74
2022/07/01 02:14:26;;;;;;;11.52;4.60;;;;;;;21.18;100.00;97614.94;5071924;28;20386;-74
2022/07/01 02:16:52;;;;;;;13.27;5.25;;;;;;;21.16;100.00;97608.97;5072164;28;20024;-75
2022/07/01 02:19:18;;;;;;;7.65;4.75;;;;;;;21.01;100.00;97611.84;5072568;28;20458;-74
2022/07/01 02:21:43;;;;;;;9.85;5.50;;;;;;;21.09;100.00;97614.41;5071867;28;20151;-74
2022/07/01 02:24:09;;;;;;;11.45;5.72;;;;;;;21.15;100.00;97612.09;5070483;28;20036;-74
2022/07/01 02:26:35;;;;;;;11.95;5.10;;;;;;;21.17;100.00;97605.00;5071874;28;20036;-75
2022/07/01 02:29:01;;;;;;;10.23;5.25;;;;;;;21.26;100.00;97615.88;5072037;28;20036;-74
2022/07/01 02:31:26;;;;;;;10.73;5.82;;;;;;;21.29;99.98;97613.16;5072217;28;20052;-75
2022/07/01 02:33:51;;;;;;;13.18;5.78;;;;;;;21.25;100.00;97609.50;5075633;28;20036;-76
2022/07/01 02:36:17;;;;;;;15.05;5.20;;;;;;;21.18;99.96;97601.03;5074160;28;20115;-73
2022/07/01 02:38:42;;;;;;;11.70;5.32;;;;;;;21.13;100.00;97604.16;5070336;28;20070;-75
2022/07/01 02:41:09;;;;;;;13.13;6.07;;;;;;;21.07;100.00;97605.59;5071601;28;20020;-75
2022/07/01 02:43:35;;;;;;;7.53;5.40;;;;;;;21.02;100.00;97607.91;5074022;28;20111;-74
2022/07/01 02:46:00;;;;;;;17.65;6.93;;;;;;;20.93;100.00;97597.00;5075835;28;20060;-76
2022/07/01 02:48:26;;;;;;;21.20;6.63;;;;;;;20.93;100.00;97604.53;5075839;28;20544;-75
2022/07/01 02:50:51;;;;;;;11.88;6.10;;;;;;;20.84;100.00;97613.16;5073187;28;20028;-73
2022/07/01 02:53:17;;;;;;;10.82;5.57;;;;;;;20.94;100.00;97618.09;5072973;28;20481;-74
2022/07/01 02:55:42;;;;;;;11.13;6.05;;;;;;;20.83;100.00;97611.56;5070633;28;20063;-75
2022/07/01 02:58:07;;;;;;;10.32;6.13;;;;;;;20.79;100.00;97616.25;5071327;28;20025;-74
2022/07/01 03:00:33;;;;;;;9.05;5.90;;;;;;;20.81;100.00;97622.22;5071029;28;20053;-76
2022/07/01 03:02:58;;;;;;;10.13;5.75;;;;;;;20.91;100.00;97621.63;5071086;28;20088;-73
2022/07/01 03:05:24;;;;;;;11.23;6.07;;;;;;;20.92;100.00;97614.09;5071114;28;20424;-74
2022/07/01 03:07:49;;;;;;;12.43;5.75;;;;;;;20.89;100.00;97623.97;5071194;28;20059;-74
2022/07/01 03:10:14;;;;;;;13.38;6.53;;;;;;;20.86;100.00;97627.50;5071153;28;20032;-74
2022/07/01 03:12:40;;;;;;;10.10;7.13;;;;;;;20.77;100.00;97630.50;5070871;28;20045;-75
2022/07/01 03:15:09;;;;;;;11.00;6.43;;;;;;;20.73;100.00;97628.84;5070666;28;20016;-74
2022/07/01 03:17:37;;;;;;;11.75;6.70;;;;;;;20.81;100.00;97641.69;5070676;28;20158;-74
2022/07/01 03:20:03;;;;;;;13.77;7.25;;;;;;;20.79;100.00;97638.50;5070938;28;20028;-74
2022/07/01 03:22:31;;;;;;;12.75;7.85;;;;;;;20.81;100.00;97648.06;5070587;28;20024;-75
2022/07/01 03:24:57;;;;;;;13.15;7.03;;;;;;;20.82;100.00;97654.44;5070268;28;20043;-74
2022/07/01 03:27:23;;;;;;;17.02;6.80;;;;;;;20.88;100.00;97654.94;5070460;28;20032;-74
2022/07/01 03:29:49;;;;;;;12.45;6.57;;;;;;;20.76;100.00;97655.91;5070382;28;20031;-75
2022/07/01 03:32:15;;;;;;;9.23;5.50;;;;;;;20.84;100.00;97652.06;5070695;28;20028;-74
2022/07/01 03:34:43;;;;;;;10.68;5.35;;;;;;;20.81;100.00;97658.38;5070785;28;20066;-74
2022/07/01 03:37:09;;;;;;;16.05;6.50;;;;;;;20.79;100.00;97663.50;5069825;28;20029;-75
2022/07/01 03:39:36;;;;;;;15.73;5.97;;;;;;;20.73;100.00;97665.00;5070516;28;20112;-73
2022/07/01 03:42:03;;;;;;;8.50;6.28;;;;;;;20.68;100.00;97665.28;5070669;28;20020;-74
2022/07/01 03:44:28;;;;;;;11.68;6.22;;;;;;;20.85;100.00;97670.38;5070251;28;20134;-75
2022/07/01 03:46:54;;;;;;;14.02;7.40;;;;;;;20.84;100.00;97664.00;5070673;28;20032;-74
2022/07/01 03:49:20;;;;;;;16.05;6.78;;;;;;;20.88;100.00;97669.63;5070375;28;20111;-75
2022/07/01 03:51:47;;;;;;;11.23;6.22;;;;;;;20.81;100.00;97675.06;5080022;28;20104;-85
2022/07/01 03:57:05;;;;;;;9.65;6.10;;;;;;;20.78;100.00;97671.03;5083613;28;20123;-81
2022/07/01 03:59:32;;;;;;;13.32;6.07;;;;;;;20.80;100.00;97679.00;5082767;28;20031;-79
2022/07/01 04:01:59;;;;;;;12.65;6.78;;;;;;;20.74;100.00;97674.91;5081923;28;20115;-85
2022/07/01 04:04:26;;;;;;;10.27;6.35;;;;;;;20.82;100.00;97679.47;5081573;28;20381;-84
2022/07/01 04:06:52;;;;;;;11.95;6.40;;;;;;;20.86;100.00;97676.75;5082876;28;20051;-79
2022/07/01 04:09:18;;;;;;;15.18;6.65;;;;;;;21.03;100.00;97681.81;5083424;28;20044;-79
2022/07/01 04:11:47;;;;;;;13.15;6.40;;;;;;;21.07;100.00;97691.84;5083170;28;20027;-83
2022/07/01 04:14:13;;;;;;;14.25;6.65;;;;;;;21.11;100.00;97689.16;5086501;28;20049;-81
2022/07/01 04:16:39;;;;;;;13.73;6.38;;;;;;;21.12;100.00;97686.00;5090070;28;20048;-81
2022/07/01 04:19:05;;;;;;;13.30;6.75;;;;;;;21.05;100.00;97680.25;5088839;28;20036;-83
2022/07/01 04:24:14;;;;;;;10.38;6.13;;;;;;;21.56;100.00;97674.38;5086453;28;20047;-84
2022/07/01 04:26:41;;;;;;;12.23;5.63;;;;;;;22.21;96.32;97692.47;5086224;28;20032;-78
2022/07/01 04:29:07;;;;;;;9.85;5.30;;;;;;;22.68;90.51;97693.91;5085841;28;20031;-83
2022/07/01 04:31:36;;;;;;;14.48;6.43;;;;;;;22.42;91.01;97691.97;5086722;28;20020;-82
2022/07/01 04:34:02;;;;;;;11.60;5.85;;;;;;;22.24;91.90;97686.16;5083048;28;20024;-81
2022/07/01 04:36:27;;;;;;;20.17;5.80;;;;;;;22.44;91.10;97692.38;5085282;28;20082;-79
2022/07/01 04:38:53;;;;;;;11.00;5.72;;;;;;;22.59;89.15;97699.72;5086493;28;20466;-83
2022/07/01 04:44:03;;;;;;;12.60;6.28;;;;;;;22.06;92.17;97701.81;5086806;28;20032;-80
2022/07/01 04:46:29;;;;;;;13.55;5.75;;;;;;;21.98;93.23;97688.19;5086865;28;20012;-81
2022/07/01 04:48:54;;;;;;;12.98;5.30;;;;;;;22.20;91.78;97701.22;5088823;28;20039;-82
2022/07/01 04:51:20;;;;;;;9.43;5.57;;;;;;;22.40;89.21;97705.47;5090523;28;20396;-84
2022/07/01 04:53:46;;;;;;;8.90;6.15;;;;;;;22.45;89.38;97709.91;5086277;28;20020;-83
2022/07/01 04:56:11;;;;;;;11.88;5.70;;;;;;;22.55;87.74;97703.69;5086816;28;20046;-81
2022/07/01 04:58:37;;;;;;;12.50;5.85;;;;;;;22.56;87.05;97702.47;5086922;28;20435;-80
2022/07/01 05:01:02;;;;;;;12.77;6.40;;;;;;;22.35;89.04;97714.16;5084610;28;20020;-83
2022/07/01 05:03:28;;;;;;;11.15;5.80;;;;;;;22.49;88.97;97713.56;5086595;28;20024;-83
2022/07/01 05:05:53;;;;;;;10.38;5.65;;;;;;;22.76;87.45;97731.84;5084604;28;20012;-80
2022/07/01 05:08:19;;;;;;;13.85;6.20;;;;;;;22.68;87.14;97721.78;5085499;28;20024;-79
2022/07/01 05:10:44;;;;;;;11.93;5.85;;;;;;;22.65;87.71;97720.53;5084676;28;20044;-84
2022/07/01 05:13:09;;;;;;;14.32;6.25;;;;;;;22.88;85.94;97717.63;5085696;28;20062;-84
2022/07/01 05:15:36;;;;;;;10.80;5.78;;;;;;;23.04;84.68;97712.63;5085898;28;20033;-82
2022/07/01 05:23:29;;;;;;;10.50;5.47;;;;;;;24.03;78.98;97730.25;5085500;28;20047;-78
2022/07/01 05:25:56;;;;;;;12.07;5.38;;;;;;;23.84;78.91;97733.31;5085454;28;20033;-83
2022/07/01 05:28:22;;;;;;;12.68;6.15;;;;;;;23.95;78.76;97739.78;5085236;28;20117;-85
2022/07/01 05:30:49;;;;;;;13.30;6.13;;;;;;;23.98;78.22;97736.22;5084490;28;20074;-84
2022/07/01 05:33:14;;;;;;;11.25;5.78;;;;;;;24.07;78.26;97741.44;5084297;28;20470;-79
2022/07/01 05:35:39;;;;;;;19.08;7.07;;;;;;;24.09;78.17;97745.47;5084330;28;20112;-80
2022/07/01 05:38:07;;;;;;;9.52;6.00;;;;;;;24.01;78.76;97752.19;5087385;28;20412;-83
2022/07/01 05:40:32;;;;;;;14.00;5.88;;;;;;;24.30;77.03;97747.63;5076275;28;20025;-79
2022/07/01 05:42:58;;;;;;;11.68;5.75;;;;;;;24.14;77.68;97747.94;5054811;28;20036;-80
2022/07/01 05:45:23;;;;;;;11.75;6.15;;;;;;;24.45;76.17;97747.31;5072680;28;20127;-78
2022/07/01 05:47:49;;;;;;;20.25;6.60;;;;;;;24.60;74.80;97747.38;5072781;28;20038;-77
2022/07/01 05:50:15;;;;;;;10.48;5.63;;;;;;;24.91;73.43;97746.75;5072462;28;20025;-74
2022/07/01 05:52:42;;;;;;;11.48;5.72;;;;;;;24.55;74.48;97750.56;5072749;28;20024;-75
2022/07/01 05:55:10;;;;;;;14.90;5.88;;;;;;;24.70;74.16;97752.22;5072630;28;20028;-75
2022/07/01 05:57:35;;;;;;;15.07;6.05;;;;;;;24.86;73.07;97749.94;5072559;28;20032;-78
2022/07/01 06:00:00;;;;;;;10.07;5.80;;;;;;;24.97;71.49;97751.56;5072557;28;20025;-79
2022/07/01 06:02:26;;;;;;;8.77;5.82;;;;;;;24.68;72.75;97749.84;5070672;28;20048;-76
2022/07/01 06:04:52;;;;;;;15.85;7.10;;;;;;;24.76;72.33;97748.66;5072519;28;20028;-74
2022/07/01 06:07:17;;;;;;;12.45;6.45;;;;;;;24.33;74.35;97750.47;5072861;28;20051;-73
2022/07/01 06:09:42;;;;;;;11.65;6.45;;;;;;;24.40;75.13;97755.28;5072080;28;20021;-75
2022/07/01 06:12:08;;;;;;;14.32;6.30;;;;;;;24.93;72.82;97749.97;5072114;28;20062;-75
2022/07/01 06:14:33;;;;;;;12.93;6.32;;;;;;;25.26;70.72;97749.66;5072383;28;20082;-73
2022/07/01 06:16:59;;;;;;;13.40;6.03;;;;;;;25.66;67.49;97748.53;5072199;28;20545;-72
2022/07/01 06:19:24;;;;;;;9.07;5.45;;;;;;;26.11;64.75;97746.91;5070730;28;20439;-73
2022/07/01 06:21:49;;;;;;;11.80;5.47;;;;;;;27.75;59.57;97747.84;5071933;28;20032;-74
2022/07/01 06:24:15;;;;;;;17.65;6.95;;;;;;;27.64;58.51;97754.34;5068508;28;20123;-73
2022/07/01 06:26:40;;;;;;;12.80;4.88;;;;;;;27.21;60.08;97755.81;5071121;28;20401;-74
2022/07/01 06:29:06;;;;;;;13.15;5.85;;;;;;;27.15;60.23;97751.81;5071854;28;20025;-73
2022/07/01 06:31:34;;;;;;;8.45;5.93;;;;;;;27.23;60.03;97753.38;5070469;28;20050;-74
2022/07/01 06:34:00;;;;;;;11.70;5.43;;;;;;;27.88;57.60;97755.34;5067502;28;20036;-74
2022/07/01 06:36:26;;;;;;;12.27;6.03;;;;;;;27.70;58.55;97751.88;5069907;28;20025;-72
2022/07/01 06:38:51;;;;;;;13.52;5.43;;;;;;;27.78;57.44;97742.19;5070059;28;20135;-73
2022/07/01 06:41:26;;;;;;;10.50;6.05;;;;;;;27.67;57.99;97747.88;5070209;28;20438;-74
2022/07/01 06:43:51;;;;;;;;;;;;;;;27.08;59.53;97743.44;5069185;28;20031;-75
2022/07/01 06:46:17;;;;;;;10.48;4.57;;;;;;;27.25;59.09;97745.34;5071146;28;19912;-75
2022/07/01 06:48:42;;;;;;;11.45;4.93;;;;;;;27.33;59.32;97744.09;5070115;28;20027;-74
2022/07/01 06:51:07;;;;;;;9.25;5.75;;;;;;;27.43;58.43;97743.25;5060286;28;20053;-75
2022/07/01 06:53:33;;;;;;;11.50;5.15;;;;;;;27.49;58.00;97744.41;5063045;28;20106;-74
2022/07/01 06:55:58;;;;;;;9.90;5.22;;;;;;;27.62;57.60;97744.72;5068407;28;20465;-74
2022/07/01 06:58:24;;;;;;;8.18;4.85;;;;;;;27.53;57.09;97747.19;5071079;28;20123;-75
2022/07/01 07:00:50;;;;;;;9.25;4.82;;;;;;;27.29;58.00;97743.31;5070995;28;20044;-75
2022/07/01 07:03:15;;;;;;;8.38;4.18;;;;;;;27.07;58.95;97733.41;5071425;28;20036;-75
2022/07/01 07:05:40;;;;;;;18.10;5.60;;;;;;;27.27;58.05;97731.69;5064891;28;20035;-75
2022/07/01 07:08:06;;;;;;;14.63;5.72;;;;;;;27.41;58.45;97731.56;5063157;28;20029;-76
2022/07/01 07:10:31;;;;;;;14.40;5.65;;;;;;;27.20;58.87;97744.97;5068928;28;20021;-74
2022/07/01 07:12:57;;;;;;;17.77;5.38;;;;;;;27.25;58.30;97741.75;5070481;28;20052;-74
2022/07/01 07:15:22;;;;;;;12.00;5.10;;;;;;;27.06;58.60;97737.44;5072599;28;20032;-74
2022/07/01 07:17:49;;;;;;;11.10;4.97;;;;;;;27.25;58.42;97731.31;5070790;28;20028;-76
2022/07/01 07:20:14;;;;;;;10.23;4.80;;;;;;;27.06;58.86;97734.63;5078492;28;20076;-76
2022/07/01 07:22:40;;;;;;;7.88;4.90;;;;;;;27.59;57.20;97721.06;5079458;28;20017;-76
2022/07/01 07:25:05;;;;;;;13.93;5.00;;;;;;;27.99;55.83;97729.94;5078190;28;20473;-75
2022/07/01 07:27:31;;;;;;;10.43;4.30;;;;;;;28.32;54.42;97726.41;5071248;28;20119;-75
2022/07/01 07:29:56;;;;;;;13.05;4.32;;;;;;;28.70;53.46;97730.84;5071153;28;20917;-75
2022/07/01 07:32:22;;;;;;;9.10;5.15;;;;;;;28.17;55.56;97724.97;5071243;28;20032;-74
2022/07/01 07:34:48;;;;;;;12.38;5.68;;;;;;;28.10;56.19;97725.84;5071054;28;20025;-75
2022/07/01 07:37:14;;;;;;;10.00;4.82;;;;;;;28.43;54.67;97718.69;5069619;28;20027;-74
2022/07/01 07:39:41;;;;;;;11.02;4.82;;;;;;;28.29;54.51;97715.22;5072913;28;20381;-75
2022/07/01 07:42:06;;;;;;;10.85;4.60;;;;;;;28.55;54.04;97706.06;5073387;28;20035;-74
2022/07/01 07:44:32;;;;;;;9.63;4.40;;;;;;;29.13;52.69;97713.41;5070843;28;20024;-74
2022/07/01 07:46:57;;;;;;;7.13;4.03;;;;;;;29.52;51.13;97708.00;5071092;28;20389;-74
2022/07/01 07:49:27;;;;;;;10.25;4.90;;;;;;;29.71;50.72;97698.81;5070608;28;20370;-74
2022/07/01 07:51:53;;;;;;;7.95;4.40;;;;;;;29.04;52.54;97701.84;5070858;28;20025;-75
2022/07/01 07:54:18;;;;;;;11.77;4.78;;;;;;;30.09;49.86;97701.41;5070575;28;20466;-75
2022/07/01 07:56:43;;;;;;;13.13;4.57;;;;;;;30.40;48.55;97700.06;5070596;28;20036;-74
2022/07/01 07:59:09;;;;;;;8.15;4.65;;;;;;;30.25;48.80;97710.00;5070748;28;20033;-76
2022/07/01 08:01:34;;;;;;;10.52;5.15;;;;;;;32.32;43.99;97714.25;5070501;28;20028;-75
2022/07/01 08:04:00;;;;;;;9.35;4.43;;;;;;;33.30;41.72;97713.44;5070804;28;20017;-73
2022/07/01 08:06:28;;;;;;;12.30;4.40;;;;;;;35.46;37.57;97717.25;5069995;28;20029;-74
2022/07/01 08:08:54;;;;;;;7.82;4.55;;;;;;;36.16;35.77;97709.91;5070714;28;20031;-74
2022/07/01 08:11:19;;;;;;;6.68;4.55;;;;;;;36.60;35.18;97710.44;5070390;28;20029;-75
2022/07/01 08:13:44;;;;;;;9.65;4.50;;;;;;;38.53;32.00;97717.41;5069039;28;20052;-75
2022/07/01 08:16:10;;;;;;;11.68;5.35;;;;;;;38.71;31.21;97727.91;5070445;28;20473;-75
2022/07/01 08:18:36;;;;;;;8.52;4.45;;;;;;;36.93;33.74;97715.00;5070366;28;20385;-72
2022/07/01 08:21:02;;;;;;;11.98;4.22;;;;;;;36.07;34.97;97709.91;5070095;28;20480;-73
2022/07/01 08:23:27;;;;;;;7.65;4.13;;;;;;;39.31;30.38;97707.50;5070288;28;20025;-74
2022/07/01 08:25:52;;;;;;;13.32;4.10;;;;;;;39.58;29.62;97710.03;5070227;28;20139;-72
2022/07/01 08:28:18;;;;;;;7.18;4.18;;;;;;;35.87;34.76;97702.53;5070302;28;20745;-72
2022/07/01 08:30:44;;;;;;;13.32;4.90;;;;;;;37.22;33.46;97694.53;5070125;28;20100;-73
2022/07/01 08:33:09;;;;;;;9.88;3.80;;;;;;;36.74;33.09;97693.50;5069852;28;20059;-73
2022/07/01 08:35:35;;;;;;;11.07;4.10;;;;;;;38.28;31.21;97697.84;5070101;28;20056;-73
2022/07/01 08:38:00;;;;;;;9.05;3.75;;;;;;;36.56;33.20;97690.66;5070709;28;20035;-74
2022/07/01 08:40:31;;;;;;;10.25;3.83;;;;;;;38.41;30.87;97689.06;5070199;28;20078;-74
2022/07/01 08:42:58;;;;;;;12.88;4.60;;;;;;;38.05;31.23;97690.88;5070250;28;20021;-74
2022/07/01 08:45:29;;;;;;;9.15;3.92;;;;;;;36.56;32.52;97675.63;5070051;28;20554;-73
2022/07/01 08:47:57;;;;;;;9.80;3.90;;;;;;;38.21;30.78;97686.00;5069784;28;20043;-75
2022/07/01 08:50:25;;;;;;;8.60;4.07;;;;;;;38.96;29.81;97681.59;5070172;28;20493;-73
2022/07/01 08:52:51;;;;;;;9.20;3.90;;;;;;;38.31;30.71;97684.69;5070057;28;20507;-72
2022/07/01 08:55:18;;;;;;;10.02;4.30;;;;;;;38.90;29.52;97677.84;5069671;28;20016;-72
2022/07/01 08:57:43;;;;;;;9.52;4.05;;;;;;;39.29;29.36;97686.34;5069899;28;20449;-74
2022/07/01 09:00:09;;;;;;;8.35;4.05;;;;;;;39.78;28.55;97682.75;5072910;28;20036;-73
2022/07/01 09:02:55;;;;;;;10.38;3.95;;;;;;;40.49;27.56;97691.56;5073630;28;20040;-73
2022/07/01 09:05:21;;;;;;;13.30;4.75;;;;;;;39.31;28.68;97683.78;5073757;28;20032;-74
2022/07/01 09:07:48;;;;;;;6.47;3.53;;;;;;;37.77;30.88;97686.56;5073710;28;20029;-73
2022/07/01 09:10:19;;;;;;;9.32;4.22;;;;;;;37.68;31.26;97685.84;5073822;28;20079;-72
2022/07/01 09:12:48;;;;;;;7.53;3.47;;;;;;;39.30;28.89;97687.94;5073456;28;20528;-72
2022/07/01 09:15:25;;;;;;;7.35;3.60;;;;;;;37.86;29.98;97686.53;5073555;28;20109;-74
2022/07/01 09:17:53;;;;;;;12.95;4.43;;;;;;;37.23;31.61;97669.63;5073169;28;20447;-73
2022/07/01 09:20:30;;;;;;;12.63;3.83;;;;;;;38.38;30.06;97682.25;5073336;28;20028;-74
2022/07/01 09:23:13;;;;;;;11.98;4.45;;;;;;;40.56;26.46;97678.91;5072095;28;20025;-73
2022/07/01 09:25:47;;;;;;;10.52;3.85;;;;;;;41.21;25.19;97676.47;5075451;28;20033;-73
2022/07/01 09:28:24;;;;;;;8.38;4.22;;;;;;;41.52;25.03;97679.38;5076604;28;20024;-74
2022/07/01 09:30:52;;;;;;;12.05;3.75;;;;;;;41.24;25.76;97686.94;5071620;28;20028;-73
2022/07/01 09:33:24;;;;;;;10.55;3.83;;;;;;;40.48;26.68;97689.19;5073264;28;20032;-73
2022/07/01 09:35:50;;;;;;;10.02;3.83;;;;;;;40.51;26.41;97679.56;5073066;28;20070;-73
2022/07/01 09:38:17;;;;;;;9.15;3.92;;;;;;;41.70;24.67;97684.72;5073339;28;20031;-72
2022/07/01 09:40:56;;;;;;;9.07;3.92;;;;;;;40.92;25.31;97678.25;5073013;28;20473;-74
2022/07/01 09:43:27;;;;;;;9.05;4.25;;;;;;;40.07;26.66;97668.28;5071461;28;20036;-72
2022/07/01 09:46:03;;;;;;;8.63;3.95;;;;;;;40.48;25.69;97664.16;5072524;28;20076;-74
2022/07/01 09:48:32;;;;;;;8.82;3.85;;;;;;;41.01;25.09;97668.69;5072801;28;20029;-73
2022/07/01 09:50:57;;;;;;;8.45;3.53;;;;;;;40.90;25.12;97671.44;5072925;28;20032;-75
2022/07/01 09:53:22;;;;;;;7.25;3.50;;;;;;;42.27;23.54;97673.09;5072651;28;20039;-74
2022/07/01 09:55:48;;;;;;;7.95;3.60;;;;;;;39.58;25.90;97657.66;5072470;28;20029;-75
2022/07/01 09:58:14;;;;;;;7.93;3.60;;;;;;;36.81;29.28;97646.75;5071210;28;20095;-73
2022/07/01 10:00:40;;;;;;;8.60;4.05;;;;;;;37.59;28.21;97645.91;5072243;28;20111;-75
2022/07/01 10:03:06;;;;;;;10.70;3.75;;;;;;;38.05;28.38;97639.44;5072171;28;20116;-73
2022/07/01 10:05:38;;;;;;;15.05;3.90;;;;;;;40.64;25.44;97646.38;5072873;28;20058;-73
2022/07/01 10:08:31;;;;;;;10.82;3.70;;;;;;;40.20;24.88;97650.75;5071598;28;20489;-72
2022/07/01 10:11:15;;;;;;;8.18;3.67;;;;;;;42.13;22.87;97660.47;5071390;28;20510;-73
2022/07/01 10:13:41;;;;;;;9.30;3.70;;;;;;;42.20;21.95;97644.81;5070795;28;20058;-73
2022/07/01 10:16:08;;;;;;;10.65;3.63;;;;;;;41.88;21.79;97644.13;5072136;28;20079;-74
2022/07/01 10:18:34;;;;;;;7.30;3.70;;;;;;;39.28;24.19;97638.97;5072056;28;20581;-74
2022/07/01 10:20:59;;;;;;;5.60;3.15;;;;;;;39.06;24.53;97633.63;5070471;28;20127;-74
2022/07/01 10:23:37;;;;;;;6.72;2.95;;;;;;;38.22;25.08;97639.78;5072003;28;20090;-74
2022/07/01 10:26:04;;;;;;;8.65;3.00;;;;;;;38.87;24.10;97630.19;5070455;28;20036;-74
2022/07/01 10:28:42;;;;;;;6.15;3.20;;;;;;;37.48;25.93;97632.13;5072125;28;20020;-73
2022/07/01 10:31:16;;;;;;;9.27;2.97;;;;;;;36.74;27.19;97619.34;5072058;28;20025;-76
2022/07/01 10:33:48;;;;;;;10.18;3.78;;;;;;;37.19;26.81;97621.28;5071982;28;20036;-72
2022/07/01 10:36:22;;;;;;;8.63;3.85;;;;;;;36.05;28.54;97619.22;5071899;28;20067;-73
2022/07/01 10:41:30;;;;;;;6.70;3.58;;;;;;;36.58;27.78;97604.63;5071678;28;20389;-74
2022/07/01 10:43:56;;;;;;;9.48;3.70;;;;;;;35.55;28.70;97594.88;5071800;28;20481;-72
2022/07/01 10:46:46;;;;;;;8.88;4.18;;;;;;;35.06;29.50;97606.19;5071436;28;20147;-74
2022/07/01 10:49:12;;;;;;;5.60;3.78;;;;;;;34.89;30.19;97608.50;5071546;28;20032;-72
2022/07/01 10:51:55;;;;;;;7.65;3.35;;;;;;;35.18;30.33;97601.72;5071245;28;20433;-74
2022/07/01 10:54:45;;;;;;;6.93;3.33;;;;;;;35.49;30.03;97594.69;5071174;28;20114;-74
2022/07/01 10:57:16;;;;;;;10.02;3.30;;;;;;;35.93;28.74;97595.25;5071067;28;20024;-73
2022/07/01 11:00:00;;;;;;;6.78;3.50;;;;;;;35.98;28.84;97591.78;5071150;28;20033;-72
2022/07/01 11:02:26;;;;;;;7.40;4.25;;;;;;;35.68;29.14;97598.38;5071855;28;20478;-73
2022/07/01 11:04:54;;;;;;;5.28;3.47;;;;;;;35.59;29.06;97594.75;5070978;28;20038;-73
2022/07/01 11:07:19;;;;;;;9.27;4.15;;;;;;;35.03;30.29;97589.28;5071048;28;20493;-74
2022/07/01 11:09:45;;;;;;;7.63;3.63;;;;;;;34.58;30.69;97587.78;5071663;28;20032;-75
2022/07/01 11:12:10;;;;;;;6.43;3.67;;;;;;;35.05;30.49;97581.09;5069651;28;20556;-74
2022/07/01 11:14:42;;;;;;;8.02;3.65;;;;;;;35.26;30.25;97581.03;5071108;28;20117;-75
2022/07/01 11:17:08;;;;;;;11.20;4.05;;;;;;;35.79;29.62;97581.66;5069948;28;20107;-73
2022/07/01 11:19:35;;;;;;;9.75;4.40;;;;;;;35.41;30.33;97581.22;5071226;28;20070;-73
2022/07/01 11:22:00;;;;;;;5.43;3.50;;;;;;;35.84;29.53;97591.59;5070783;28;20031;-73
2022/07/01 11:24:26;;;;;;;10.25;3.90;;;;;;;35.63;28.90;97592.53;5070696;28;20103;-75
2022/07/01 11:26:59;;;;;;;7.78;3.78;;;;;;;34.67;30.21;97579.31;5070955;28;20316;-74
2022/07/01 11:29:27;;;;;;;10.18;4.28;;;;;;;34.94;29.88;97585.13;5070551;28;20065;-73
2022/07/01 11:31:53;;;;;;;10.25;4.55;;;;;;;35.16;30.12;97582.25;5070681;28;20047;-73
2022/07/01 11:34:19;;;;;;;9.90;3.60;;;;;;;35.46;29.48;97581.38;5070696;28;20029;-74
2022/07/01 11:39:33;;;;;;;8.70;3.67;;;;;;;34.22;31.26;97559.91;5072291;28;20079;-75
2022/07/01 11:42:08;;;;;;;7.00;4.18;;;;;;;33.22;33.18;97560.97;5073928;28;20091;-72
2022/07/01 11:44:36;;;;;;;5.43;3.88;;;;;;;33.42;32.89;97552.19;5071070;28;20025;-74